createdAt,value
2018-06-10T00:00:42.325Z,19.71
2018-06-10T00:03:10.942Z,19.66
2018-06-10T00:05:39.527Z,19.64
2018-06-10T00:08:08.225Z,19.70
2018-06-10T00:10:37.474Z,19.69
2018-06-10T00:13:06.113Z,19.62
2018-06-10T00:15:34.759Z,19.56
2018-06-10T00:18:03.371Z,19.47
2018-06-10T00:20:32.028Z,19.41
2018-06-10T00:23:00.657Z,19.38
2018-06-10T00:25:29.379Z,19.38
2018-06-10T00:27:58.058Z,19.45
2018-06-10T00:30:26.665Z,19.44
2018-06-10T00:32:55.305Z,19.35
2018-06-10T00:35:24.024Z,19.28
2018-06-10T00:37:52.665Z,19.22
2018-06-10T00:40:21.385Z,19.16
2018-06-10T00:42:50.042Z,19.14
2018-06-10T00:45:18.741Z,19.11
2018-06-10T00:47:47.412Z,19.18
2018-06-10T00:50:16.097Z,19.18
2018-06-10T00:52:44.796Z,19.23
2018-06-10T00:55:13.451Z,19.30
2018-06-10T00:57:42.065Z,19.24
2018-06-10T01:00:10.714Z,19.18
2018-06-10T01:02:39.317Z,19.12
2018-06-10T01:05:07.913Z,19.05
2018-06-10T01:07:36.595Z,18.98
2018-06-10T01:10:05.287Z,18.93
2018-06-10T01:12:33.926Z,18.89
2018-06-10T01:15:02.561Z,18.87
2018-06-10T01:17:31.202Z,18.86
2018-06-10T01:19:59.866Z,18.83
2018-06-10T01:22:28.481Z,18.84
2018-06-10T01:24:57.098Z,18.85
2018-06-10T01:27:25.729Z,18.89
2018-06-10T01:29:54.374Z,18.94
2018-06-10T01:32:23.089Z,18.96
2018-06-10T01:34:51.685Z,18.94
2018-06-10T01:37:20.260Z,18.94
2018-06-10T01:39:48.831Z,19.02
2018-06-10T01:42:17.446Z,18.99
2018-06-10T01:44:46.353Z,18.94
2018-06-10T01:47:15.006Z,18.85
2018-06-10T01:49:43.628Z,18.75
2018-06-10T01:52:12.243Z,18.68
2018-06-10T01:54:40.877Z,18.64
2018-06-10T01:57:09.507Z,18.59
2018-06-10T01:59:38.091Z,18.54
2018-06-10T02:02:06.745Z,18.51
2018-06-10T02:04:35.365Z,18.49
2018-06-10T02:07:03.998Z,18.43
2018-06-10T02:09:32.609Z,18.39
2018-06-10T02:12:01.227Z,18.38
2018-06-10T02:14:36.050Z,18.42
2018-06-10T02:17:04.880Z,18.44
2018-06-10T02:19:33.466Z,18.41
2018-06-10T02:22:02.666Z,18.38
2018-06-10T02:24:32.245Z,18.35
2018-06-10T02:27:00.822Z,18.33
2018-06-10T02:29:29.460Z,18.30
2018-06-10T02:31:58.093Z,18.29
2018-06-10T02:34:26.685Z,18.29
2018-06-10T02:36:55.806Z,18.27
2018-06-10T02:39:24.737Z,18.25
2018-06-10T02:41:53.362Z,18.23
2018-06-10T02:44:21.997Z,18.21
2018-06-10T02:46:50.631Z,18.24
2018-06-10T02:49:19.216Z,18.24
2018-06-10T02:51:47.820Z,18.24
2018-06-10T02:54:16.444Z,18.22
2018-06-10T02:56:45.088Z,18.23
2018-06-10T02:59:13.784Z,18.26
2018-06-10T03:01:42.381Z,18.26
2018-06-10T03:04:10.976Z,18.30
2018-06-10T03:06:39.590Z,18.30
2018-06-10T03:09:08.331Z,18.32
2018-06-10T03:11:36.953Z,18.47
2018-06-10T03:14:05.622Z,18.63
2018-06-10T03:16:34.256Z,18.71
2018-06-10T03:19:02.888Z,18.73
2018-06-10T03:21:31.518Z,18.76
2018-06-10T03:24:00.139Z,18.81
2018-06-10T03:26:28.845Z,18.88
2018-06-10T03:28:57.660Z,18.96
2018-06-10T03:31:26.275Z,19.05
2018-06-10T03:33:54.880Z,19.10
2018-06-10T03:36:23.540Z,19.18
2018-06-10T03:38:52.133Z,19.24
2018-06-10T03:41:20.720Z,19.34
2018-06-10T03:43:49.365Z,19.52
2018-06-10T03:46:17.930Z,19.62
2018-06-10T03:48:46.559Z,19.73
2018-06-10T03:51:15.235Z,19.75
2018-06-10T03:53:43.784Z,19.81
2018-06-10T03:56:12.516Z,19.84
2018-06-10T03:58:41.124Z,19.85
2018-06-10T04:01:09.709Z,19.85
2018-06-10T04:03:38.301Z,19.88
2018-06-10T04:06:06.960Z,19.97
2018-06-10T04:08:35.609Z,20.02
2018-06-10T04:11:04.211Z,20.11
2018-06-10T04:13:32.850Z,20.11
2018-06-10T04:16:01.453Z,20.13
2018-06-10T04:18:30.054Z,20.12
2018-06-10T04:20:58.649Z,20.18
2018-06-10T04:23:27.277Z,20.20
2018-06-10T04:25:55.869Z,20.25
2018-06-10T04:28:25.424Z,20.29
2018-06-10T04:30:54.009Z,20.37
2018-06-10T04:33:22.644Z,20.36
2018-06-10T04:35:51.289Z,20.36
2018-06-10T04:38:19.889Z,20.48
2018-06-10T04:40:48.478Z,20.67
2018-06-10T04:43:17.095Z,20.71
2018-06-10T04:45:45.715Z,20.79
2018-06-10T04:48:14.330Z,20.78
2018-06-10T04:50:42.978Z,20.94
2018-06-10T04:53:11.666Z,20.95
2018-06-10T04:55:40.381Z,21.13
2018-06-10T04:58:09.046Z,21.27
2018-06-10T05:00:37.615Z,21.41
2018-06-10T05:03:06.332Z,21.38
2018-06-10T05:05:34.946Z,21.36
2018-06-10T05:08:03.585Z,21.43
2018-06-10T05:10:32.209Z,21.50
2018-06-10T05:13:00.824Z,21.46
2018-06-10T05:15:29.434Z,21.50
2018-06-10T05:17:58.017Z,21.59
2018-06-10T05:20:26.709Z,21.77
2018-06-10T05:22:55.310Z,21.67
2018-06-10T05:25:24.074Z,21.68
2018-06-10T05:27:52.781Z,21.77
2018-06-10T05:30:21.350Z,21.84
2018-06-10T05:32:50.132Z,21.99
2018-06-10T05:35:18.797Z,22.06
2018-06-10T05:37:47.417Z,22.11
2018-06-10T05:40:16.047Z,22.22
2018-06-10T05:42:44.740Z,22.38
2018-06-10T05:45:13.642Z,22.58
2018-06-10T05:47:42.237Z,22.84
2018-06-10T05:50:10.978Z,23.02
2018-06-10T05:52:39.673Z,22.98
2018-06-10T05:55:08.304Z,23.04
2018-06-10T05:57:37.006Z,23.08
2018-06-10T06:00:05.990Z,23.17
2018-06-10T06:02:34.648Z,23.19
2018-06-10T06:05:03.267Z,23.31
2018-06-10T06:07:32.035Z,23.46
2018-06-10T06:10:00.695Z,23.57
2018-06-10T06:12:29.342Z,23.59
2018-06-10T06:14:57.944Z,23.63
2018-06-10T06:17:26.638Z,23.59
2018-06-10T06:19:55.323Z,23.61
2018-06-10T06:22:23.967Z,23.74
2018-06-10T06:24:52.638Z,23.93
2018-06-10T06:27:21.342Z,24.02
2018-06-10T06:29:49.920Z,24.10
2018-06-10T06:32:18.607Z,24.16
2018-06-10T06:34:47.261Z,24.19
2018-06-10T06:37:15.881Z,24.34
2018-06-10T06:39:44.588Z,24.40
2018-06-10T06:42:13.232Z,24.52
2018-06-10T06:44:41.862Z,24.70
2018-06-10T06:47:10.545Z,24.97
2018-06-10T06:49:39.164Z,24.82
2018-06-10T06:52:07.814Z,24.86
2018-06-10T06:54:36.485Z,24.99
2018-06-10T06:57:05.166Z,24.87
2018-06-10T06:59:33.877Z,24.94
2018-06-10T07:02:02.594Z,25.13
2018-06-10T07:04:31.230Z,25.21
2018-06-10T07:06:59.895Z,25.20
2018-06-10T07:09:32.179Z,25.22
2018-06-10T07:12:00.971Z,25.39
2018-06-10T07:14:29.608Z,25.37
2018-06-10T07:16:59.596Z,25.35
2018-06-10T07:19:28.331Z,25.46
2018-06-10T07:21:57.079Z,25.77
2018-06-10T07:24:25.777Z,25.91
2018-06-10T07:26:54.432Z,25.96
2018-06-10T07:29:23.060Z,25.96
2018-06-10T07:31:52.744Z,26.17
2018-06-10T07:34:21.370Z,26.19
2018-06-10T07:36:50.077Z,25.85
2018-06-10T07:39:18.766Z,25.86
2018-06-10T07:41:47.420Z,25.95
2018-06-10T07:44:16.064Z,25.90
2018-06-10T07:46:44.724Z,25.99
2018-06-10T07:49:13.353Z,25.95
2018-06-10T07:51:41.954Z,26.00
2018-06-10T07:54:10.592Z,26.06
2018-06-10T07:56:39.182Z,26.04
2018-06-10T07:59:07.861Z,26.25
2018-06-10T08:01:36.538Z,26.14
2018-06-10T08:04:05.234Z,26.26
2018-06-10T08:06:33.890Z,26.32
2018-06-10T08:09:02.764Z,26.27
2018-06-10T08:11:31.448Z,26.48
2018-06-10T08:14:00.075Z,26.62
2018-06-10T08:16:28.739Z,26.72
2018-06-10T08:18:57.767Z,26.94
2018-06-10T08:21:26.455Z,27.09
2018-06-10T08:23:55.145Z,27.13
2018-06-10T08:26:24.609Z,27.09
2018-06-10T08:29:04.142Z,27.21
2018-06-10T08:31:32.890Z,27.20
2018-06-10T08:34:01.543Z,27.32
2018-06-10T08:36:32.076Z,27.38
2018-06-10T08:39:01.320Z,27.28
2018-06-10T08:41:31.748Z,27.40
2018-06-10T08:44:00.423Z,27.49
2018-06-10T08:46:29.174Z,27.71
2018-06-10T08:48:57.822Z,27.85
2018-06-10T08:51:28.123Z,28.00
2018-06-10T08:53:56.780Z,28.23
2018-06-10T08:56:26.854Z,28.49
2018-06-10T08:58:55.955Z,28.60
2018-06-10T09:01:24.905Z,28.52
2018-06-10T09:16:43.599Z,28.57
2018-06-10T09:19:12.207Z,28.69
2018-06-10T09:21:41.017Z,28.80
2018-06-10T09:24:10.157Z,28.85
2018-06-10T09:26:38.786Z,28.92
2018-06-10T09:29:07.494Z,28.93
2018-06-10T09:31:36.127Z,28.85
2018-06-10T09:34:04.882Z,29.07
2018-06-10T09:36:33.545Z,29.18
2018-06-10T09:39:02.350Z,29.50
2018-06-10T09:41:31.018Z,29.77
2018-06-10T09:43:59.693Z,29.89
2018-06-10T09:46:29.446Z,29.65
2018-06-10T09:48:58.257Z,29.77
2018-06-10T09:51:26.915Z,29.97
2018-06-10T09:53:55.992Z,30.01
2018-06-10T09:56:25.395Z,30.18
2018-06-10T09:58:54.305Z,30.50
2018-06-10T10:01:23.167Z,30.72
2018-06-10T10:03:51.847Z,30.85
2018-06-10T10:06:20.535Z,30.67
2018-06-10T10:08:49.188Z,30.48
2018-06-10T10:11:17.802Z,30.89
2018-06-10T10:13:46.445Z,30.89
2018-06-10T10:16:15.074Z,30.78
2018-06-10T10:18:45.811Z,30.53
2018-06-10T10:21:14.496Z,30.52
2018-06-10T10:23:43.132Z,30.44
2018-06-10T10:26:11.770Z,30.57
2018-06-10T10:28:40.380Z,30.85
2018-06-10T10:31:09.148Z,31.22
2018-06-10T10:33:37.749Z,31.59
2018-06-10T10:36:06.368Z,31.97
2018-06-10T10:38:35.091Z,32.16
2018-06-10T10:41:03.697Z,32.53
2018-06-10T10:43:32.318Z,32.76
2018-06-10T10:46:00.954Z,32.99
2018-06-10T10:48:29.560Z,32.94
2018-06-10T10:50:59.583Z,32.88
2018-06-10T10:53:28.228Z,33.10
2018-06-10T10:56:00.580Z,33.61
2018-06-10T10:58:29.257Z,33.79
2018-06-10T11:00:57.846Z,34.26
2018-06-10T11:03:33.245Z,34.68
2018-06-10T11:06:01.843Z,35.01
2018-06-10T11:08:31.138Z,34.87
2018-06-10T11:10:59.763Z,34.71
2018-06-10T11:13:28.396Z,34.64
2018-06-10T11:15:57.018Z,34.72
2018-06-10T11:18:25.646Z,35.16
2018-06-10T11:20:54.247Z,35.45
2018-06-10T11:23:25.216Z,35.25
2018-06-10T11:25:55.381Z,35.35
2018-06-10T11:28:24.525Z,35.23
2018-06-10T11:30:53.594Z,34.85
2018-06-10T11:33:22.926Z,34.93
2018-06-10T11:35:51.591Z,34.81
2018-06-10T11:38:20.221Z,34.48
2018-06-10T11:40:48.937Z,34.22
2018-06-10T11:43:17.537Z,34.01
2018-06-10T11:45:46.244Z,33.69
2018-06-10T11:48:14.822Z,33.16
2018-06-10T11:50:44.541Z,32.76
2018-06-10T11:53:13.137Z,32.25
2018-06-10T11:55:41.804Z,31.68
2018-06-10T11:58:10.452Z,31.25
2018-06-10T12:00:39.106Z,30.91
2018-06-10T12:03:07.732Z,30.53
2018-06-10T12:05:36.346Z,30.37
2018-06-10T12:08:05.166Z,30.29
2018-06-10T12:10:33.750Z,30.08
2018-06-10T12:13:02.443Z,29.85
2018-06-10T12:15:31.098Z,29.53
2018-06-10T12:17:59.683Z,29.35
2018-06-10T12:20:28.297Z,29.28
2018-06-10T12:22:57.128Z,29.44
2018-06-10T12:25:25.699Z,29.66
2018-06-10T12:27:54.333Z,29.80
2018-06-10T12:40:03.195Z,30.01
2018-06-10T12:42:31.926Z,30.18
2018-06-10T12:45:00.610Z,30.26
2018-06-10T12:47:29.277Z,30.35
2018-06-10T12:49:57.862Z,30.62
2018-06-10T12:52:26.460Z,31.02
2018-06-10T12:54:55.158Z,31.59
2018-06-10T12:57:23.778Z,32.15
2018-06-10T12:59:56.028Z,32.46
2018-06-10T13:02:24.585Z,32.47
2018-06-10T13:04:53.239Z,32.67
2018-06-10T13:07:22.768Z,32.97
2018-06-10T13:09:55.366Z,33.25
2018-06-10T13:12:24.129Z,33.22
2018-06-10T13:14:52.774Z,33.32
2018-06-10T13:17:21.416Z,33.20
2018-06-10T13:19:50.098Z,33.14
2018-06-10T13:22:18.751Z,32.96
2018-06-10T13:24:47.397Z,32.95
2018-06-10T13:27:16.061Z,32.57
2018-06-10T13:29:44.704Z,32.26
2018-06-10T13:32:13.354Z,32.01
2018-06-10T13:34:41.967Z,31.80
2018-06-10T13:37:10.597Z,32.21
2018-06-10T13:39:43.583Z,32.64
2018-06-10T13:42:12.261Z,32.96
2018-06-10T13:44:40.856Z,32.96
2018-06-10T13:47:09.564Z,32.90
2018-06-10T13:49:38.182Z,32.70
2018-06-10T13:52:06.853Z,33.21
2018-06-10T13:54:35.574Z,33.49
2018-06-10T13:57:04.226Z,33.07
2018-06-10T13:59:32.923Z,32.65
2018-06-10T14:02:01.765Z,32.39
2018-06-10T14:04:30.421Z,32.26
2018-06-10T14:06:59.057Z,31.99
2018-06-10T14:09:27.703Z,31.79
2018-06-10T14:11:57.939Z,31.62
2018-06-10T14:14:26.555Z,31.67
2018-06-10T14:16:55.183Z,31.65
2018-06-10T14:19:23.833Z,31.53
2018-06-10T14:21:52.480Z,31.63
2018-06-10T14:24:21.102Z,31.67
2018-06-10T14:26:49.765Z,31.64
2018-06-10T14:29:18.386Z,31.70
2018-06-10T14:31:48.062Z,31.55
2018-06-10T14:34:16.742Z,31.41
2018-06-10T14:36:45.363Z,31.56
2018-06-10T14:39:14.047Z,31.78
2018-06-10T14:41:42.781Z,32.05
2018-06-10T14:44:11.570Z,32.55
2018-06-10T14:46:40.226Z,32.85
2018-06-10T14:49:08.881Z,33.15
2018-06-10T14:51:37.511Z,34.64
2018-06-10T14:54:06.118Z,35.42
2018-06-10T14:56:34.763Z,35.41
2018-06-10T14:59:03.421Z,35.77
2018-06-10T15:01:32.039Z,36.38
2018-06-10T15:04:00.808Z,37.23
2018-06-10T15:06:29.677Z,38.17
2018-06-10T15:08:58.370Z,39.30
2018-06-10T15:11:27.077Z,40.35
2018-06-10T15:13:56.097Z,41.28
2018-06-10T15:16:24.738Z,42.95
2018-06-10T15:18:54.000Z,43.23
2018-06-10T15:21:22.998Z,43.19
2018-06-10T15:23:51.799Z,43.64
2018-06-10T15:26:23.787Z,43.61
2018-06-10T15:28:53.191Z,42.99
2018-06-10T15:31:21.907Z,41.11
2018-06-10T15:33:50.507Z,41.90
2018-06-10T15:36:20.176Z,41.88
2018-06-10T15:38:48.819Z,41.61
2018-06-10T15:41:17.493Z,39.73
2018-06-10T15:43:46.509Z,39.25
2018-06-10T15:46:15.156Z,38.46
2018-06-10T15:48:43.853Z,38.53
2018-06-10T15:51:12.534Z,37.65
2018-06-10T15:53:41.290Z,36.43
2018-06-10T15:56:09.915Z,35.49
2018-06-10T15:58:38.968Z,34.33
2018-06-10T16:01:08.256Z,33.98
2018-06-10T16:03:38.219Z,33.62
2018-06-10T16:06:07.001Z,32.53
2018-06-10T16:08:35.812Z,32.15
2018-06-10T16:11:05.227Z,31.55
2018-06-10T16:13:33.965Z,31.31
2018-06-10T16:16:02.710Z,31.02
2018-06-10T16:18:31.479Z,30.79
2018-06-10T16:21:00.258Z,30.57
2018-06-10T16:23:29.062Z,30.35
2018-06-10T16:25:58.799Z,30.39
2018-06-10T16:28:28.532Z,30.50
2018-06-10T16:30:57.326Z,30.44
2018-06-10T16:33:26.230Z,30.24
2018-06-10T16:35:54.984Z,30.08
2018-06-10T16:38:23.694Z,29.76
2018-06-10T16:40:52.519Z,29.67
2018-06-10T16:43:21.306Z,29.53
2018-06-10T16:45:50.080Z,29.57
2018-06-10T16:48:18.805Z,29.62
2018-06-10T16:50:47.605Z,29.68
2018-06-10T16:53:16.331Z,29.59
2018-06-10T16:55:45.040Z,29.48
2018-06-10T16:58:13.866Z,29.47
2018-06-10T17:00:42.695Z,29.45
2018-06-10T17:03:11.382Z,29.50
2018-06-10T17:05:40.106Z,29.39
2018-06-10T17:08:08.936Z,29.37
2018-06-10T17:10:37.586Z,29.35
2018-06-10T17:13:06.251Z,29.42
2018-06-10T17:15:34.930Z,29.44
2018-06-10T17:18:04.155Z,29.54
2018-06-10T17:20:32.920Z,29.59
2018-06-10T17:23:01.595Z,29.65
2018-06-10T17:25:30.242Z,30.21
2018-06-10T17:27:58.988Z,31.59
2018-06-10T17:30:28.928Z,32.91
2018-06-10T17:32:57.589Z,34.05
2018-06-10T17:35:26.255Z,34.09
2018-06-10T17:37:54.948Z,33.38
2018-06-10T17:40:23.546Z,33.55
2018-06-10T17:42:52.209Z,34.48
2018-06-10T17:45:20.894Z,34.97
2018-06-10T17:47:49.556Z,35.79
2018-06-10T17:50:18.261Z,36.20
2018-06-10T17:52:47.003Z,36.20
2018-06-10T17:55:15.745Z,35.93
2018-06-10T17:57:44.357Z,35.65
2018-06-10T18:00:13.026Z,35.41
2018-06-10T18:02:41.715Z,34.73
2018-06-10T18:05:10.406Z,33.87
2018-06-10T18:07:39.040Z,32.98
2018-06-10T18:10:07.822Z,32.37
2018-06-10T18:12:36.637Z,31.92
2018-06-10T18:15:05.372Z,31.40
2018-06-10T18:17:34.078Z,30.88
2018-06-10T18:20:03.146Z,30.42
2018-06-10T18:22:31.835Z,30.01
2018-06-10T18:25:00.503Z,29.66
2018-06-10T18:27:29.190Z,29.33
2018-06-10T18:29:57.870Z,29.04
2018-06-10T18:32:26.539Z,28.78
2018-06-10T18:34:55.181Z,28.48
2018-06-10T18:37:24.563Z,28.26
2018-06-10T18:39:53.260Z,28.05
2018-06-10T18:42:21.902Z,27.81
2018-06-10T18:44:50.610Z,27.54
2018-06-10T18:47:19.344Z,27.35
2018-06-10T18:49:48.047Z,27.15
2018-06-10T18:52:16.711Z,26.98
2018-06-10T18:54:45.366Z,26.77
2018-06-10T18:57:14.056Z,26.62
2018-06-10T18:59:42.762Z,26.47
2018-06-10T19:02:11.481Z,26.33
2018-06-10T19:04:40.286Z,26.21
2018-06-10T19:07:09.002Z,26.07
2018-06-10T19:09:37.739Z,25.94
2018-06-10T19:12:06.523Z,25.81
2018-06-10T19:14:35.291Z,25.70
2018-06-10T19:17:04.136Z,25.58
2018-06-10T19:19:32.792Z,25.50
2018-06-10T19:22:01.576Z,25.41
2018-06-10T19:24:30.232Z,25.31
2018-06-10T19:26:58.923Z,25.21
2018-06-10T19:29:27.606Z,25.12
2018-06-10T19:31:56.274Z,25.06
2018-06-10T19:34:25.469Z,24.97
2018-06-10T19:36:54.229Z,24.95
2018-06-10T19:39:22.931Z,24.91
2018-06-10T19:41:51.611Z,24.84
2018-06-10T19:44:20.299Z,24.80
2018-06-10T19:46:49.035Z,24.72
2018-06-10T19:49:17.703Z,24.71
2018-06-10T19:51:46.431Z,24.67
2018-06-10T19:54:15.726Z,24.61
2018-06-10T19:56:44.457Z,24.59
2018-06-10T19:59:13.205Z,24.61
2018-06-10T20:01:41.886Z,24.55
2018-06-10T20:04:10.578Z,24.48
2018-06-10T20:06:39.330Z,24.42
2018-06-10T20:09:08.423Z,24.47
2018-06-10T20:11:37.090Z,24.54
2018-06-10T20:14:05.748Z,24.51
2018-06-10T20:16:34.461Z,24.55
2018-06-10T20:19:03.156Z,24.48
2018-06-10T20:21:31.862Z,24.38
2018-06-10T20:24:00.660Z,24.32
2018-06-10T20:26:29.364Z,24.26
2018-06-10T20:28:58.099Z,24.36
2018-06-10T20:31:26.875Z,24.46
2018-06-10T20:33:56.145Z,24.47
2018-06-10T20:36:24.897Z,24.49
2018-06-10T20:38:53.501Z,24.69
2018-06-10T20:41:22.142Z,24.59
2018-06-10T20:43:51.465Z,24.68
2018-06-10T20:46:21.758Z,24.78
2018-06-10T20:48:50.389Z,24.69
2018-06-10T20:51:19.623Z,24.70
2018-06-10T20:53:48.279Z,24.70
2018-06-10T20:56:16.925Z,24.70
2018-06-10T20:58:45.556Z,24.55
2018-06-10T21:01:14.193Z,24.38
2018-06-10T21:03:42.831Z,24.24
2018-06-10T21:06:11.448Z,24.16
2018-06-10T21:08:40.109Z,24.08
2018-06-10T21:11:08.777Z,23.98
2018-06-10T21:13:37.407Z,23.91
2018-06-10T21:16:06.083Z,23.87
2018-06-10T21:18:34.706Z,23.76
2018-06-10T21:21:03.366Z,23.67
2018-06-10T21:23:32.048Z,23.62
2018-06-10T21:26:00.637Z,23.63
2018-06-10T21:28:29.239Z,23.60
2018-06-10T21:30:57.851Z,23.60
2018-06-10T21:33:26.503Z,23.56
2018-06-10T21:35:55.137Z,23.51
2018-06-10T21:38:24.162Z,23.48
2018-06-10T21:40:52.816Z,23.52
2018-06-10T21:43:21.441Z,23.49
2018-06-10T21:45:50.057Z,23.49
2018-06-10T21:48:18.741Z,23.52
2018-06-10T21:50:47.336Z,23.45
2018-06-10T21:53:15.987Z,23.30
2018-06-10T21:55:44.662Z,23.20
2018-06-10T21:58:13.286Z,23.18
2018-06-10T22:00:42.016Z,23.07
2018-06-10T22:03:10.648Z,22.98
2018-06-10T22:05:39.263Z,23.00
2018-06-10T22:08:07.892Z,23.11
2018-06-10T22:10:36.568Z,23.09
2018-06-10T22:13:05.173Z,22.99
2018-06-10T22:15:33.790Z,23.02
2018-06-10T22:18:02.446Z,23.10
2018-06-10T22:20:31.047Z,23.12
2018-06-10T22:22:59.639Z,23.28
2018-06-10T22:25:28.359Z,23.11
2018-06-10T22:27:56.977Z,23.07
2018-06-10T22:30:25.604Z,22.95
2018-06-10T22:32:54.249Z,22.91
2018-06-10T22:35:22.879Z,22.83
2018-06-10T22:37:51.473Z,22.79
2018-06-10T22:40:20.169Z,22.78
2018-06-10T22:42:48.746Z,22.77
2018-06-10T22:45:17.329Z,22.82
2018-06-10T22:47:45.953Z,22.81
2018-06-10T22:50:14.713Z,22.75
2018-06-10T22:52:43.488Z,22.76
2018-06-10T22:55:12.824Z,22.76
2018-06-10T22:57:41.412Z,22.77
2018-06-10T23:00:10.034Z,22.76
2018-06-10T23:02:38.625Z,22.70
2018-06-10T23:05:07.252Z,22.67
2018-06-10T23:07:35.862Z,22.80
2018-06-10T23:10:04.521Z,22.81
2018-06-10T23:12:33.094Z,22.79
2018-06-10T23:15:01.660Z,22.82
2018-06-10T23:17:30.307Z,22.86
2018-06-10T23:19:58.882Z,22.83
2018-06-10T23:22:27.481Z,22.75
2018-06-10T23:24:56.074Z,22.93
2018-06-10T23:27:24.661Z,22.86
2018-06-10T23:29:53.312Z,22.79
2018-06-10T23:32:21.979Z,22.83
2018-06-10T23:34:50.559Z,22.72
2018-06-10T23:37:19.130Z,22.80
2018-06-10T23:39:47.685Z,22.78
2018-06-10T23:42:16.261Z,22.78
2018-06-10T23:44:44.845Z,22.71
2018-06-10T23:47:13.404Z,22.59
2018-06-10T23:49:42.009Z,22.54
2018-06-10T23:52:10.585Z,22.44
2018-06-10T23:54:39.154Z,22.41
2018-06-10T23:57:07.741Z,22.49
2018-06-10T23:59:36.315Z,22.42
